createdAt,value
2023-05-24T00:01:44.731Z,17.26
2023-05-24T00:04:13.397Z,17.25
2023-05-24T00:06:42.865Z,17.23
2023-05-24T00:09:12.657Z,17.21
2023-05-24T00:11:41.128Z,17.18
2023-05-24T00:14:09.664Z,17.15
2023-05-24T00:16:38.259Z,17.14
2023-05-24T00:19:06.727Z,17.12
2023-05-24T00:21:37.119Z,17.11
2023-05-24T00:24:06.831Z,17.09
2023-05-24T00:26:35.164Z,17.06
2023-05-24T00:29:04.030Z,17.03
2023-05-24T00:31:32.658Z,17.00
2023-05-24T00:34:01.127Z,16.96
2023-05-24T00:36:29.410Z,16.93
2023-05-24T00:38:57.870Z,16.87
2023-05-24T00:41:27.248Z,16.84
2023-05-24T00:43:55.874Z,16.82
2023-05-24T00:46:33.363Z,16.79
2023-05-24T00:49:02.348Z,16.77
2023-05-24T00:51:32.795Z,16.75
2023-05-24T00:54:01.536Z,16.73
2023-05-24T00:56:31.623Z,16.71
2023-05-24T00:59:00.578Z,16.71
2023-05-24T01:01:31.539Z,16.71
2023-05-24T01:04:00.800Z,16.69
2023-05-24T01:06:30.742Z,16.69
2023-05-24T01:09:20.184Z,16.67
2023-05-24T01:12:01.360Z,16.64
2023-05-24T01:14:31.872Z,16.61
2023-05-24T01:17:46.623Z,16.59
2023-05-24T01:20:17.957Z,16.57
2023-05-24T01:23:15.246Z,16.55
2023-05-24T01:25:49.459Z,16.52
2023-05-24T01:28:19.333Z,16.48
2023-05-24T01:30:48.491Z,16.47
2023-05-24T01:33:17.027Z,16.47
2023-05-24T01:35:45.434Z,16.46
2023-05-24T01:38:14.680Z,16.47
2023-05-24T01:40:44.291Z,16.47
2023-05-24T01:43:38.273Z,16.48
2023-05-24T01:46:23.255Z,16.47
2023-05-24T01:48:57.737Z,16.45
2023-05-24T01:51:34.325Z,16.45
2023-05-24T01:54:06.814Z,16.43
2023-05-24T01:56:37.364Z,16.43
2023-05-24T01:59:07.671Z,16.42
2023-05-24T02:01:36.209Z,16.40
2023-05-24T02:04:04.902Z,16.40
2023-05-24T02:06:33.336Z,16.40
2023-05-24T02:09:01.631Z,16.39
2023-05-24T02:11:30.119Z,16.38
2023-05-24T02:13:58.493Z,16.37
2023-05-24T02:16:27.217Z,16.37
2023-05-24T02:18:55.957Z,16.36
2023-05-24T02:21:25.686Z,16.35
2023-05-24T02:23:54.303Z,16.34
2023-05-24T02:26:22.758Z,16.33
2023-05-24T02:28:51.192Z,16.33
2023-05-24T02:31:19.674Z,16.31
2023-05-24T02:33:48.078Z,16.29
2023-05-24T02:36:16.408Z,16.29
2023-05-24T02:38:44.825Z,16.27
2023-05-24T02:41:18.113Z,16.26
2023-05-24T02:43:47.358Z,16.26
2023-05-24T02:46:16.110Z,16.27
2023-05-24T02:48:44.779Z,16.27
2023-05-24T02:51:13.195Z,16.26
2023-05-24T02:53:43.750Z,16.24
2023-05-24T02:56:14.313Z,16.22
2023-05-24T02:58:42.720Z,16.20
2023-05-24T03:01:13.221Z,16.17
2023-05-24T03:03:42.013Z,16.15
2023-05-24T03:06:10.481Z,16.14
2023-05-24T03:08:38.822Z,16.13
2023-05-24T03:11:07.370Z,16.14
2023-05-24T03:13:36.005Z,16.14
2023-05-24T03:16:04.672Z,16.15
2023-05-24T03:18:33.024Z,16.14
2023-05-24T03:21:01.396Z,16.14
2023-05-24T03:23:29.773Z,16.15
2023-05-24T03:25:58.296Z,16.15
2023-05-24T03:28:28.012Z,16.15
2023-05-24T03:30:56.461Z,16.14
2023-05-24T03:33:24.860Z,16.13
2023-05-24T03:35:53.202Z,16.12
2023-05-24T03:38:21.510Z,16.12
2023-05-24T03:40:50.022Z,16.13
2023-05-24T03:43:18.737Z,16.12
2023-05-24T03:45:47.602Z,16.12
2023-05-24T03:48:16.096Z,16.11
2023-05-24T03:50:44.717Z,16.09
2023-05-24T03:53:13.355Z,16.07
2023-05-24T03:55:41.907Z,16.06
2023-05-24T03:58:10.304Z,16.06
2023-05-24T04:00:38.868Z,16.06
2023-05-24T04:03:07.405Z,16.08
2023-05-24T04:05:35.970Z,16.10
2023-05-24T04:08:04.487Z,16.12
2023-05-24T04:10:32.890Z,16.14
2023-05-24T04:13:01.949Z,16.13
2023-05-24T04:15:31.462Z,16.12
2023-05-24T04:18:00.976Z,16.07
2023-05-24T04:20:29.724Z,16.06
2023-05-24T04:22:59.244Z,16.04
2023-05-24T04:26:47.438Z,16.01
2023-05-24T04:29:40.554Z,15.97
2023-05-24T04:33:30.222Z,15.94
2023-05-24T04:43:28.376Z,15.93
2023-05-24T04:49:44.417Z,15.96
2023-05-24T04:52:38.973Z,15.98
2023-05-24T04:55:08.030Z,16.00
2023-05-24T04:57:36.445Z,16.01
2023-05-24T05:00:05.894Z,16.00
2023-05-24T05:03:26.074Z,16.01
2023-05-24T05:05:54.544Z,16.03
2023-05-24T05:09:03.279Z,16.04
2023-05-24T05:19:50.574Z,16.13
2023-05-24T05:36:06.906Z,16.69
2023-05-24T05:38:35.344Z,16.70
2023-05-24T05:42:09.536Z,16.69
2023-05-24T05:44:51.918Z,16.81
2023-05-24T05:48:16.613Z,16.99
2023-05-24T05:51:10.558Z,17.20
2023-05-24T05:54:11.184Z,17.31
2023-05-24T06:04:44.376Z,17.49
2023-05-24T06:11:00.234Z,17.51
2023-05-24T06:13:29.257Z,17.53
2023-05-24T06:15:59.142Z,17.58
2023-05-24T06:18:27.978Z,17.68
2023-05-24T06:20:58.401Z,17.75
2023-05-24T06:23:26.979Z,17.85
2023-05-24T06:25:56.404Z,17.92
2023-05-24T06:28:24.819Z,17.89
2023-05-24T06:30:53.341Z,17.83
2023-05-24T06:33:22.718Z,17.78
2023-05-24T06:35:51.259Z,17.78
2023-05-24T06:38:19.689Z,17.78
2023-05-24T06:40:48.113Z,17.86
2023-05-24T06:43:16.636Z,17.98
2023-05-24T06:45:44.969Z,18.11
2023-05-24T06:48:13.354Z,18.24
2023-05-24T06:50:42.984Z,18.36
2023-05-24T06:53:11.747Z,18.50
2023-05-24T06:55:40.116Z,18.57
2023-05-24T06:58:08.570Z,18.64
2023-05-24T07:00:36.864Z,18.76
2023-05-24T07:03:05.286Z,18.89
2023-05-24T07:05:33.660Z,19.05
2023-05-24T07:08:02.276Z,19.21
2023-05-24T07:10:30.632Z,19.35
2023-05-24T07:12:58.946Z,19.42
2023-05-24T07:15:27.344Z,19.40
2023-05-24T07:17:55.637Z,19.43
2023-05-24T07:20:24.220Z,19.48
2023-05-24T07:22:53.679Z,19.62
2023-05-24T07:25:23.387Z,19.78
2023-05-24T07:27:51.895Z,19.94
2023-05-24T07:30:46.624Z,20.14
2023-05-24T07:33:09.884Z,20.27
2023-05-24T07:35:39.244Z,20.38
2023-05-24T07:38:08.021Z,20.42
2023-05-24T07:40:36.394Z,20.41
2023-05-24T07:43:08.709Z,20.36
2023-05-24T07:45:38.343Z,20.38
2023-05-24T07:48:07.489Z,20.48
2023-05-24T07:50:36.476Z,20.62
2023-05-24T07:53:05.673Z,20.79
2023-05-24T07:55:34.419Z,21.01
2023-05-24T07:58:30.596Z,21.20
2023-05-24T08:01:00.586Z,21.31
2023-05-24T08:03:30.163Z,21.43
2023-05-24T08:05:58.907Z,21.46
2023-05-24T08:08:27.274Z,21.33
2023-05-24T08:10:55.788Z,21.32
2023-05-24T08:13:24.800Z,21.40
2023-05-24T08:15:53.561Z,21.51
2023-05-24T08:18:21.929Z,21.51
2023-05-24T08:20:50.315Z,21.47
2023-05-24T08:23:18.940Z,21.40
2023-05-24T08:25:47.941Z,21.46
2023-05-24T08:28:17.256Z,21.68
2023-05-24T08:30:46.549Z,21.91
2023-05-24T08:33:15.079Z,22.11
2023-05-24T08:35:43.679Z,22.21
2023-05-24T08:38:12.346Z,22.22
2023-05-24T08:40:41.125Z,22.33
2023-05-24T08:43:12.488Z,22.61
2023-05-24T08:45:42.506Z,22.91
2023-05-24T08:48:13.495Z,23.05
2023-05-24T08:50:43.674Z,23.17
2023-05-24T08:57:40.002Z,23.62
2023-05-24T09:00:14.651Z,23.63
2023-05-24T09:02:46.091Z,23.71
2023-05-24T09:05:21.924Z,23.65
2023-05-24T09:07:53.620Z,23.54
2023-05-24T09:10:24.704Z,23.48
2023-05-24T09:12:57.774Z,23.45
2023-05-24T09:15:27.540Z,23.53
2023-05-24T09:17:56.271Z,23.53
2023-05-24T09:20:24.959Z,23.52
2023-05-24T09:22:54.316Z,23.51
2023-05-24T09:25:29.614Z,23.53
2023-05-24T09:27:58.892Z,23.49
2023-05-24T09:30:30.871Z,23.38
2023-05-24T09:33:01.000Z,23.24
2023-05-24T09:36:21.590Z,23.16
2023-05-24T09:39:11.140Z,23.12
2023-05-24T09:41:40.060Z,23.23
2023-05-24T09:44:08.429Z,23.37
2023-05-24T09:46:38.926Z,23.48
2023-05-24T09:49:08.894Z,23.64
2023-05-24T09:51:39.619Z,23.70
2023-05-24T09:54:10.018Z,23.70
2023-05-24T09:56:41.018Z,23.61
2023-05-24T09:59:10.248Z,23.54
2023-05-24T10:01:38.880Z,23.39
2023-05-24T10:04:09.775Z,23.27
2023-05-24T10:06:43.435Z,23.27
2023-05-24T10:09:29.625Z,23.23
2023-05-24T10:11:58.573Z,23.17
2023-05-24T10:14:31.004Z,23.09
2023-05-24T10:17:00.639Z,22.99
2023-05-24T10:19:29.640Z,22.97
2023-05-24T10:22:00.225Z,22.94
2023-05-24T10:24:36.108Z,22.88
2023-05-24T10:27:11.501Z,22.79
2023-05-24T10:29:59.886Z,22.68
2023-05-24T10:32:32.615Z,22.64
2023-05-24T10:35:03.791Z,22.63
2023-05-24T10:37:43.477Z,22.67
2023-05-24T10:40:23.091Z,22.72
2023-05-24T10:42:55.519Z,22.77
2023-05-24T10:45:49.494Z,22.94
2023-05-24T10:48:29.337Z,23.31
2023-05-24T10:51:01.659Z,23.55
2023-05-24T10:53:41.400Z,23.70
2023-05-24T10:56:10.928Z,23.76
2023-05-24T10:59:08.404Z,23.80
2023-05-24T11:01:39.829Z,23.96
2023-05-24T11:04:15.704Z,23.93
2023-05-24T11:06:51.063Z,24.15
2023-05-24T11:09:22.450Z,24.55
2023-05-24T11:11:55.407Z,24.95
2023-05-24T11:14:27.768Z,25.34
2023-05-24T11:16:57.020Z,25.65
2023-05-24T11:19:35.523Z,25.98
2023-05-24T11:22:07.879Z,26.19
2023-05-24T11:24:37.239Z,26.34
2023-05-24T11:27:07.433Z,26.31
2023-05-24T11:29:41.750Z,26.26
2023-05-24T11:32:10.525Z,26.34
2023-05-24T11:34:40.311Z,26.52
2023-05-24T11:37:09.603Z,26.42
2023-05-24T11:39:38.752Z,26.29
2023-05-24T11:42:09.598Z,26.15
2023-05-24T11:44:38.794Z,25.87
2023-05-24T11:47:09.561Z,25.82
2023-05-24T11:49:37.957Z,25.98
2023-05-24T11:52:06.768Z,26.19
2023-05-24T11:54:38.092Z,26.14
2023-05-24T11:57:07.120Z,26.31
2023-05-24T11:59:38.205Z,26.70
2023-05-24T12:02:10.816Z,27.10
2023-05-24T12:04:39.494Z,27.39
2023-05-24T12:07:12.203Z,27.68
2023-05-24T12:09:40.624Z,27.79
2023-05-24T12:12:09.343Z,27.77
2023-05-24T12:14:39.467Z,27.68
2023-05-24T12:17:16.190Z,27.81
2023-05-24T12:19:45.093Z,28.01
2023-05-24T12:22:13.472Z,28.03
2023-05-24T12:24:42.674Z,28.16
2023-05-24T12:27:11.822Z,28.23
2023-05-24T12:29:42.190Z,28.14
2023-05-24T12:32:15.565Z,28.20
2023-05-24T12:34:45.192Z,28.12
2023-05-24T12:37:15.558Z,27.99
2023-05-24T12:39:44.860Z,28.03
2023-05-24T12:42:14.160Z,28.20
2023-05-24T12:44:43.077Z,28.30
2023-05-24T12:47:12.505Z,28.47
2023-05-24T12:49:40.944Z,28.57
2023-05-24T12:52:09.580Z,28.55
2023-05-24T12:54:38.085Z,28.50
2023-05-24T12:57:07.985Z,27.99
2023-05-24T12:59:36.391Z,27.53
2023-05-24T13:02:04.850Z,27.43
2023-05-24T13:04:34.147Z,27.26
2023-05-24T13:07:03.460Z,26.86
2023-05-24T13:09:33.447Z,26.24
2023-05-24T13:12:02.191Z,25.67
2023-05-24T13:14:30.769Z,25.22
2023-05-24T13:16:59.422Z,24.91
2023-05-24T13:19:28.027Z,24.71
2023-05-24T13:21:56.465Z,24.49
2023-05-24T13:24:24.995Z,24.33
2023-05-24T13:26:54.904Z,24.11
2023-05-24T13:29:36.562Z,23.86
2023-05-24T13:32:08.265Z,23.75
2023-05-24T13:34:52.267Z,23.55
2023-05-24T13:38:03.583Z,23.22
2023-05-24T13:40:32.471Z,22.92
2023-05-24T13:43:00.954Z,22.77
2023-05-24T13:45:30.638Z,22.73
2023-05-24T13:48:04.249Z,22.77
2023-05-24T13:50:36.852Z,22.89
2023-05-24T13:53:05.974Z,22.92
2023-05-24T13:55:37.902Z,23.00
2023-05-24T13:58:07.065Z,23.05
2023-05-24T14:00:36.449Z,23.06
2023-05-24T14:03:06.387Z,23.04
2023-05-24T14:05:35.618Z,23.04
2023-05-24T14:08:07.244Z,23.07
2023-05-24T14:10:37.344Z,23.12
2023-05-24T14:16:33.656Z,23.35
2023-05-24T14:19:02.196Z,23.62
2023-05-24T14:21:31.367Z,23.79
2023-05-24T14:23:59.827Z,23.84
2023-05-24T14:26:28.862Z,23.83
2023-05-24T14:28:57.526Z,23.81
2023-05-24T14:31:26.143Z,23.78
2023-05-24T14:33:54.646Z,23.63
2023-05-24T14:36:23.479Z,23.54
2023-05-24T14:38:54.821Z,23.53
2023-05-24T14:41:23.194Z,23.50
2023-05-24T14:43:51.617Z,23.44
2023-05-24T14:46:20.066Z,23.45
2023-05-24T14:48:48.585Z,23.46
2023-05-24T14:51:17.125Z,23.46
2023-05-24T14:53:45.888Z,23.52
2023-05-24T14:56:15.047Z,23.61
2023-05-24T14:58:43.624Z,23.68
2023-05-24T15:01:12.042Z,23.65
2023-05-24T15:03:40.600Z,23.56
2023-05-24T15:06:09.736Z,23.49
2023-05-24T15:08:38.570Z,23.40
2023-05-24T15:11:06.931Z,23.36
2023-05-24T15:13:35.537Z,23.33
2023-05-24T15:16:04.172Z,23.26
2023-05-24T15:18:32.708Z,23.19
2023-05-24T15:21:01.379Z,23.16
2023-05-24T15:23:29.861Z,23.13
2023-05-24T15:25:58.318Z,23.12
2023-05-24T15:28:26.997Z,23.16
2023-05-24T15:30:57.333Z,23.30
2023-05-24T15:33:27.245Z,23.46
2023-05-24T15:35:56.037Z,23.57
2023-05-24T15:38:24.983Z,23.65
2023-05-24T15:40:53.607Z,23.72
2023-05-24T15:43:22.052Z,23.76
2023-05-24T15:45:50.569Z,23.74
2023-05-24T15:48:18.969Z,23.57
2023-05-24T15:51:25.736Z,23.37
2023-05-24T15:53:35.848Z,23.14
2023-05-24T15:56:04.439Z,22.96
2023-05-24T15:58:33.054Z,22.78
2023-05-24T16:01:01.732Z,22.56
2023-05-24T16:03:30.158Z,22.37
2023-05-24T16:05:58.896Z,22.12
2023-05-24T16:08:28.786Z,21.94
2023-05-24T16:10:58.019Z,21.80
2023-05-24T16:13:26.565Z,21.70
2023-05-24T16:15:55.200Z,21.56
2023-05-24T16:18:23.858Z,21.41
2023-05-24T16:20:53.172Z,21.23
2023-05-24T16:23:24.449Z,21.14
2023-05-24T16:25:53.879Z,21.10
2023-05-24T16:28:24.445Z,21.02
2023-05-24T16:30:56.609Z,20.87
2023-05-24T16:33:26.007Z,20.77
2023-05-24T16:35:58.660Z,20.69
2023-05-24T16:38:28.858Z,20.57
2023-05-24T16:40:57.947Z,20.52
2023-05-24T16:43:27.008Z,20.52
2023-05-24T16:45:56.497Z,20.53
2023-05-24T16:48:28.922Z,20.52
2023-05-24T16:50:58.762Z,20.53
2023-05-24T16:53:29.325Z,20.52
2023-05-24T16:55:58.435Z,20.51
2023-05-24T16:58:28.969Z,20.48
2023-05-24T17:00:59.207Z,20.41
2023-05-24T17:03:28.901Z,20.32
2023-05-24T17:06:05.567Z,20.20
2023-05-24T17:08:36.347Z,20.10
2023-05-24T17:11:08.952Z,20.03
2023-05-24T17:13:39.805Z,19.96
2023-05-24T17:16:14.174Z,19.89
2023-05-24T17:18:42.642Z,19.82
2023-05-24T17:25:38.033Z,19.71
